sensor_id;sensor_type;location;lat;lon;timestamp;pressure;altitude;pressure_sealevel;temperature;humidity
6028;BME280;3042;43.194;27.646;2022-10-31T00:00:15;101900.13;;;21.60;100.00
6028;BME280;3042;43.194;27.646;2022-10-31T00:02:42;101923.91;;;21.67;100.00
6028;BME280;3042;43.194;27.646;2022-10-31T00:05:10;101936.22;;;21.68;100.00
6028;BME280;3042;43.194;27.646;2022-10-31T00:07:37;101932.84;;;21.76;100.00
6028;BME280;3042;43.194;27.646;2022-10-31T00:10:05;101918.22;;;21.91;100.00
6028;BME280;3042;43.194;27.646;2022-10-31T00:12:33;101923.41;;;21.88;100.00
6028;BME280;3042;43.194;27.646;2022-10-31T00:15:00;101919.84;;;21.85;100.00
6028;BME280;3042;43.194;27.646;2022-10-31T00:17:29;101909.78;;;22.12;100.00
6028;BME280;3042;43.194;27.646;2022-10-31T00:19:56;101921.75;;;21.95;100.00
6028;BME280;3042;43.194;27.646;2022-10-31T00:22:23;101917.41;;;21.97;100.00
6028;BME280;3042;43.194;27.646;2022-10-31T00:24:51;101917.41;;;21.97;100.00
6028;BME280;3042;43.194;27.646;2022-10-31T00:27:19;101913.88;;;21.95;100.00
6028;BME280;3042;43.194;27.646;2022-10-31T00:29:46;101906.81;;;21.92;100.00
6028;BME280;3042;43.194;27.646;2022-10-31T00:32:13;101907.75;;;21.96;100.00
6028;BME280;3042;43.194;27.646;2022-10-31T00:34:42;101895.78;;;22.15;100.00
6028;BME280;3042;43.194;27.646;2022-10-31T00:37:09;101898.13;;;21.98;100.00
6028;BME280;3042;43.194;27.646;2022-10-31T00:39:36;101900.81;;;22.03;100.00
6028;BME280;3042;43.194;27.646;2022-10-31T00:42:03;101903.59;;;22.12;100.00
6028;BME280;3042;43.194;27.646;2022-10-31T00:44:31;101899.13;;;22.06;100.00
6028;BME280;3042;43.194;27.646;2022-10-31T00:46:58;101894.84;;;22.14;100.00
6028;BME280;3042;43.194;27.646;2022-10-31T00:49:25;101891.38;;;22.16;100.00
6028;BME280;3042;43.194;27.646;2022-10-31T00:51:54;101885.50;;;22.32;100.00
6028;BME280;3042;43.194;27.646;2022-10-31T00:54:21;101891.34;;;22.12;100.00
6028;BME280;3042;43.194;27.646;2022-10-31T00:56:48;101900.97;;;22.10;100.00
6028;BME280;3042;43.194;27.646;2022-10-31T00:59:15;101897.47;;;22.11;100.00
6028;BME280;3042;43.194;27.646;2022-10-31T01:01:43;101900.13;;;22.14;100.00
6028;BME280;3042;43.194;27.646;2022-10-31T01:04:10;101891.34;;;22.12;100.00
6028;BME280;3042;43.194;27.646;2022-10-31T01:06:37;101901.94;;;22.19;100.00
6028;BME280;3042;43.194;27.646;2022-10-31T01:09:06;101888.28;;;22.41;100.00
6028;BME280;3042;43.194;27.646;2022-10-31T01:11:33;101895.09;;;22.27;100.00
6028;BME280;3042;43.194;27.646;2022-10-31T01:14:00;101894.25;;;22.29;100.00
6028;BME280;3042;43.194;27.646;2022-10-31T01:16:27;101897.75;;;22.30;100.00
6028;BME280;3042;43.194;27.646;2022-10-31T01:18:55;101903.03;;;22.30;100.00
6028;BME280;3042;43.194;27.646;2022-10-31T01:21:24;101900.53;;;22.39;100.00
6028;BME280;3042;43.194;27.646;2022-10-31T01:23:53;101895.31;;;22.42;100.00
6028;BME280;3042;43.194;27.646;2022-10-31T01:26:24;101901.41;;;22.40;100.00
6028;BME280;3042;43.194;27.646;2022-10-31T01:28:53;101912.63;;;22.25;100.00
6028;BME280;3042;43.194;27.646;2022-10-31T01:31:23;101903.84;;;22.26;100.00
6028;BME280;3042;43.194;27.646;2022-10-31T01:33:50;101909.75;;;22.11;100.00
6028;BME280;3042;43.194;27.646;2022-10-31T01:36:19;101913.47;;;22.24;100.00
6028;BME280;3042;43.194;27.646;2022-10-31T01:38:48;101910.84;;;22.24;100.00
6028;BME280;3042;43.194;27.646;2022-10-31T01:41:17;101856.63;;;21.80;100.00
6028;BME280;3042;43.194;27.646;2022-10-31T01:43:49;101914.44;;;21.76;100.00
6028;BME280;3042;43.194;27.646;2022-10-31T01:46:20;101912.41;;;21.59;100.00
6028;BME280;3042;43.194;27.646;2022-10-31T01:48:51;101914.06;;;21.56;100.00
6028;BME280;3042;43.194;27.646;2022-10-31T01:51:21;101851.38;;;21.32;100.00
6028;BME280;3042;43.194;27.646;2022-10-31T01:53:51;101919.84;;;21.86;100.00
6028;BME280;3042;43.194;27.646;2022-10-31T01:56:22;101926.72;;;21.75;100.00
6028;BME280;3042;43.194;27.646;2022-10-31T01:58:51;101916.47;;;21.92;100.00
6028;BME280;3042;43.194;27.646;2022-10-31T02:01:20;101928.44;;;21.75;100.00
6028;BME280;3042;43.194;27.646;2022-10-31T02:03:47;101926.03;;;21.87;100.00
6028;BME280;3042;43.194;27.646;2022-10-31T02:06:24;101899.97;;;22.05;100.00
6028;BME280;3042;43.194;27.646;2022-10-31T02:08:55;101886.47;;;21.82;100.00
6028;BME280;3042;43.194;27.646;2022-10-31T02:11:25;101912.09;;;21.94;100.00
6028;BME280;3042;43.194;27.646;2022-10-31T02:13:54;101901.81;;;22.09;100.00
6028;BME280;3042;43.194;27.646;2022-10-31T02:16:21;101813.66;;;21.29;100.00
6028;BME280;3042;43.194;27.646;2022-10-31T02:18:49;101912.88;;;21.88;100.00
6028;BME280;3042;43.194;27.646;2022-10-31T02:21:19;101907.94;;;22.08;100.00
6028;BME280;3042;43.194;27.646;2022-10-31T02:27:27;101888.91;;;22.25;100.00
6028;BME280;3042;43.194;27.646;2022-10-31T02:30:11;101893.22;;;22.20;100.00
6028;BME280;3042;43.194;27.646;2022-10-31T02:33:09;101905.47;;;22.19;100.00
6028;BME280;3042;43.194;27.646;2022-10-31T02:35:42;101914.91;;;22.05;100.00
6028;BME280;3042;43.194;27.646;2022-10-31T02:38:24;101912.41;;;22.12;100.00
6028;BME280;3042;43.194;27.646;2022-10-31T02:41:01;101707.03;;;20.94;100.00
6028;BME280;3042;43.194;27.646;2022-10-31T02:43:34;101914.03;;;22.04;100.00
6028;BME280;3042;43.194;27.646;2022-10-31T02:46:07;101909.75;;;22.11;100.00
6028;BME280;3042;43.194;27.646;2022-10-31T02:48:39;101936.13;;;22.16;100.00
6028;BME280;3042;43.194;27.646;2022-10-31T02:51:10;101914.19;;;22.17;100.00
6028;BME280;3042;43.194;27.646;2022-10-31T02:53:38;101922.84;;;22.06;100.00
6028;BME280;3042;43.194;27.646;2022-10-31T02:56:08;101920.44;;;22.22;100.00
6028;BME280;3042;43.194;27.646;2022-10-31T02:58:41;101918.03;;;22.34;100.00
6028;BME280;3042;43.194;27.646;2022-10-31T03:01:33;101916.38;;;22.42;100.00
6028;BME280;3042;43.194;27.646;2022-10-31T03:07:08;101921.38;;;22.24;100.00
6028;BME280;3042;43.194;27.646;2022-10-31T03:09:43;101928.28;;;22.19;100.00
6028;BME280;3042;43.194;27.646;2022-10-31T03:12:19;101924.72;;;22.17;100.00
6028;BME280;3042;43.194;27.646;2022-10-31T03:14:58;101899.03;;;22.00;100.00
6028;BME280;3042;43.194;27.646;2022-10-31T03:17:33;101933.53;;;22.19;100.00
6028;BME280;3042;43.194;27.646;2022-10-31T03:20:04;101938.63;;;22.06;100.00
6028;BME280;3042;43.194;27.646;2022-10-31T03:22:36;101940.47;;;22.10;100.00
6028;BME280;3042;43.194;27.646;2022-10-31T03:25:06;101942.94;;;22.01;100.00
6028;BME280;3042;43.194;27.646;2022-10-31T03:27:36;101944.72;;;22.04;100.00
6028;BME280;3042;43.194;27.646;2022-10-31T03:30:06;101951.56;;;21.92;100.00
6028;BME280;3042;43.194;27.646;2022-10-31T03:32:36;101951.47;;;21.88;100.00
6028;BME280;3042;43.194;27.646;2022-10-31T03:35:07;101947.97;;;21.89;100.00
6028;BME280;3042;43.194;27.646;2022-10-31T03:37:39;101953.09;;;21.81;100.00
6028;BME280;3042;43.194;27.646;2022-10-31T03:40:09;101957.16;;;21.62;100.00
6028;BME280;3042;43.194;27.646;2022-10-31T03:42:40;101961.38;;;21.53;100.00
6028;BME280;3042;43.194;27.646;2022-10-31T03:45:11;101965.22;;;21.71;100.00
6028;BME280;3042;43.194;27.646;2022-10-31T03:47:40;101971.22;;;21.64;100.00
6028;BME280;3042;43.194;27.646;2022-10-31T03:50:10;101766.25;;;20.34;100.00
6028;BME280;3042;43.194;27.646;2022-10-31T03:52:45;101974.16;;;21.36;100.00
6028;BME280;3042;43.194;27.646;2022-10-31T03:55:17;101858.22;;;20.38;100.00
6028;BME280;3042;43.194;27.646;2022-10-31T03:57:50;101978.59;;;20.96;100.00
6028;BME280;3042;43.194;27.646;2022-10-31T04:00:19;101989.03;;;20.93;100.00
6028;BME280;3042;43.194;27.646;2022-10-31T04:02:50;101981.06;;;21.31;100.00
6028;BME280;3042;43.194;27.646;2022-10-31T04:05:20;101985.47;;;21.32;100.00
6028;BME280;3042;43.194;27.646;2022-10-31T04:07:52;101956.94;;;21.50;100.00
6028;BME280;3042;43.194;27.646;2022-10-31T04:10:21;101982.41;;;21.53;100.00
6028;BME280;3042;43.194;27.646;2022-10-31T04:12:54;101978.38;;;21.71;100.00
6028;BME280;3042;43.194;27.646;2022-10-31T04:15:23;101982.75;;;21.73;100.00
6028;BME280;3042;43.194;27.646;2022-10-31T04:17:55;101992.63;;;21.83;100.00
6028;BME280;3042;43.194;27.646;2022-10-31T04:20:30;101991.06;;;21.94;100.00
6028;BME280;3042;43.194;27.646;2022-10-31T04:22:59;101990.06;;;21.89;100.00
6028;BME280;3042;43.194;27.646;2022-10-31T04:25:26;101999.44;;;21.71;100.00
6028;BME280;3042;43.194;27.646;2022-10-31T04:27:53;102006.63;;;21.82;100.00
6028;BME280;3042;43.194;27.646;2022-10-31T04:30:20;102014.63;;;21.88;100.00
6028;BME280;3042;43.194;27.646;2022-10-31T04:32:48;102017.41;;;21.94;100.00
6028;BME280;3042;43.194;27.646;2022-10-31T04:35:15;101933.28;;;21.52;100.00
6028;BME280;3042;43.194;27.646;2022-10-31T04:37:43;102020.16;;;22.02;100.00
6028;BME280;3042;43.194;27.646;2022-10-31T04:40:12;102001.97;;;22.17;100.00
6028;BME280;3042;43.194;27.646;2022-10-31T04:42:39;102024.19;;;21.83;100.00
6028;BME280;3042;43.194;27.646;2022-10-31T04:45:06;102028.53;;;21.81;100.00
6028;BME280;3042;43.194;27.646;2022-10-31T04:47:34;102031.97;;;21.77;100.00
6028;BME280;3042;43.194;27.646;2022-10-31T04:50:01;102030.16;;;21.32;100.00
6028;BME280;3042;43.194;27.646;2022-10-31T04:52:28;102033.94;;;21.43;100.00
6028;BME280;3042;43.194;27.646;2022-10-31T04:54:55;102031.78;;;21.67;100.00
6028;BME280;3042;43.194;27.646;2022-10-31T04:57:24;102030.31;;;21.82;100.00
6028;BME280;3042;43.194;27.646;2022-10-31T04:59:51;102006.66;;;21.39;100.00
6028;BME280;3042;43.194;27.646;2022-10-31T05:02:18;102038.09;;;21.76;100.00
6028;BME280;3042;43.194;27.646;2022-10-31T05:04:46;102035.00;;;21.98;100.00
6028;BME280;3042;43.194;27.646;2022-10-31T05:07:13;102033.28;;;22.00;100.00
6028;BME280;3042;43.194;27.646;2022-10-31T05:09:40;101951.09;;;21.66;100.00
6028;BME280;3042;43.194;27.646;2022-10-31T05:12:07;102032.88;;;22.24;100.00
6028;BME280;3042;43.194;27.646;2022-10-31T05:14:36;102018.41;;;22.52;100.00
6028;BME280;3042;43.194;27.646;2022-10-31T05:17:03;101851.16;;;21.19;100.00
6028;BME280;3042;43.194;27.646;2022-10-31T05:19:30;101942.69;;;21.89;100.00
6028;BME280;3042;43.194;27.646;2022-10-31T05:21:58;102035.72;;;22.38;100.00
6028;BME280;3042;43.194;27.646;2022-10-31T05:24:25;102031.66;;;22.57;100.00
6028;BME280;3042;43.194;27.646;2022-10-31T05:26:52;102033.38;;;22.57;100.00
6028;BME280;3042;43.194;27.646;2022-10-31T05:29:19;102039.81;;;22.74;100.00
6028;BME280;3042;43.194;27.646;2022-10-31T05:31:48;101913.59;;;22.31;100.00
6028;BME280;3042;43.194;27.646;2022-10-31T05:34:15;102036.56;;;22.93;100.00
6028;BME280;3042;43.194;27.646;2022-10-31T05:36:42;102051.72;;;23.05;100.00
6028;BME280;3042;43.194;27.646;2022-10-31T05:39:09;102063.06;;;23.01;100.00
6028;BME280;3042;43.194;27.646;2022-10-31T05:41:37;102057.72;;;22.98;100.00
6028;BME280;3042;43.194;27.646;2022-10-31T05:44:04;102062.41;;;23.16;100.00
6028;BME280;3042;43.194;27.646;2022-10-31T05:46:32;102072.06;;;23.14;100.00
6028;BME280;3042;43.194;27.646;2022-10-31T05:49:01;102067.06;;;23.35;100.00
6028;BME280;3042;43.194;27.646;2022-10-31T05:51:28;102081.66;;;23.10;100.00
6028;BME280;3042;43.194;27.646;2022-10-31T05:53:55;102099.97;;;23.00;100.00
6028;BME280;3042;43.194;27.646;2022-10-31T05:56:22;102102.25;;;22.80;100.00
6028;BME280;3042;43.194;27.646;2022-10-31T05:58:50;102093.66;;;22.91;100.00
6028;BME280;3042;43.194;27.646;2022-10-31T06:01:17;102082.72;;;23.23;100.00
6028;BME280;3042;43.194;27.646;2022-10-31T06:03:44;102075.78;;;23.31;100.00
6028;BME280;3042;43.194;27.646;2022-10-31T06:06:13;102074.91;;;23.31;100.00
6028;BME280;3042;43.194;27.646;2022-10-31T06:08:40;101861.69;;;22.23;100.00
6028;BME280;3042;43.194;27.646;2022-10-31T06:11:08;102080.69;;;23.71;100.00
6028;BME280;3042;43.194;27.646;2022-10-31T06:13:35;102078.13;;;23.75;100.00
6028;BME280;3042;43.194;27.646;2022-10-31T06:16:02;102074.78;;;23.92;100.00
6028;BME280;3042;43.194;27.646;2022-10-31T06:18:29;102076.72;;;24.08;100.00
6028;BME280;3042;43.194;27.646;2022-10-31T06:20:57;102075.00;;;24.13;100.00
6028;BME280;3042;43.194;27.646;2022-10-31T06:23:25;102071.88;;;24.54;100.00
6028;BME280;3042;43.194;27.646;2022-10-31T06:25:52;101862.22;;;23.41;100.00
6028;BME280;3042;43.194;27.646;2022-10-31T06:28:21;101997.78;;;24.42;100.00
6028;BME280;3042;43.194;27.646;2022-10-31T06:30:48;102079.31;;;25.08;100.00
6028;BME280;3042;43.194;27.646;2022-10-31T06:33:15;102033.41;;;24.99;100.00
6028;BME280;3042;43.194;27.646;2022-10-31T06:35:45;102073.38;;;25.53;100.00
6028;BME280;3042;43.194;27.646;2022-10-31T06:38:13;101868.09;;;24.10;100.00
6028;BME280;3042;43.194;27.646;2022-10-31T06:40:41;101881.38;;;24.23;100.00
6028;BME280;3042;43.194;27.646;2022-10-31T06:43:09;102091.72;;;25.18;100.00
6028;BME280;3042;43.194;27.646;2022-10-31T06:45:36;101880.38;;;24.03;100.00
6028;BME280;3042;43.194;27.646;2022-10-31T06:48:04;102084.84;;;25.47;100.00
6028;BME280;3042;43.194;27.646;2022-10-31T06:50:32;102001.72;;;25.13;100.00
6028;BME280;3042;43.194;27.646;2022-10-31T06:52:59;102087.50;;;25.58;100.00
6028;BME280;3042;43.194;27.646;2022-10-31T06:55:26;101703.09;;;23.48;100.00
6028;BME280;3042;43.194;27.646;2022-10-31T06:57:57;102085.91;;;26.05;100.00
6028;BME280;3042;43.194;27.646;2022-10-31T07:00:25;102088.56;;;26.11;100.00
6028;BME280;3042;43.194;27.646;2022-10-31T07:02:54;102022.31;;;25.89;100.00
6028;BME280;3042;43.194;27.646;2022-10-31T07:05:21;102078.88;;;26.39;100.00
6028;BME280;3042;43.194;27.646;2022-10-31T07:07:52;102069.16;;;26.73;100.00
6028;BME280;3042;43.194;27.646;2022-10-31T07:10:19;102076.25;;;26.62;100.00
6028;BME280;3042;43.194;27.646;2022-10-31T07:12:46;102074.44;;;26.83;100.00
6028;BME280;3042;43.194;27.646;2022-10-31T07:15:15;102060.22;;;27.16;100.00
6028;BME280;3042;43.194;27.646;2022-10-31T07:17:42;102051.41;;;27.00;97.03
6028;BME280;3042;43.194;27.646;2022-10-31T07:20:10;102056.66;;;27.15;95.75
6028;BME280;3042;43.194;27.646;2022-10-31T07:22:37;102054.88;;;27.17;94.74
6028;BME280;3042;43.194;27.646;2022-10-31T07:25:05;102050.47;;;27.26;94.81
6028;BME280;3042;43.194;27.646;2022-10-31T07:27:36;102042.44;;;27.41;94.15
6028;BME280;3042;43.194;27.646;2022-10-31T07:30:04;102046.94;;;27.24;92.46
6028;BME280;3042;43.194;27.646;2022-10-31T07:32:39;102047.78;;;27.38;92.57
6028;BME280;3042;43.194;27.646;2022-10-31T07:35:07;102058.44;;;27.13;93.34
6028;BME280;3042;43.194;27.646;2022-10-31T07:37:35;102079.75;;;26.52;93.31
6028;BME280;3042;43.194;27.646;2022-10-31T07:40:03;102087.66;;;26.15;96.59
6028;BME280;3042;43.194;27.646;2022-10-31T07:42:34;102077.97;;;26.36;96.66
6028;BME280;3042;43.194;27.646;2022-10-31T07:45:02;102072.69;;;26.42;95.84
6028;BME280;3042;43.194;27.646;2022-10-31T07:47:29;102073.59;;;26.61;95.57
6028;BME280;3042;43.194;27.646;2022-10-31T07:49:58;102009.94;;;26.53;94.84
6028;BME280;3042;43.194;27.646;2022-10-31T07:52:25;102076.22;;;26.84;95.23
6028;BME280;3042;43.194;27.646;2022-10-31T07:54:52;101977.22;;;26.48;95.37
6028;BME280;3042;43.194;27.646;2022-10-31T07:57:19;102080.59;;;26.99;96.10
6028;BME280;3042;43.194;27.646;2022-10-31T07:59:47;102072.63;;;26.97;96.90
6028;BME280;3042;43.194;27.646;2022-10-31T08:02:14;101934.91;;;26.02;97.77
6028;BME280;3042;43.194;27.646;2022-10-31T08:04:41;102078.81;;;27.10;98.50
6028;BME280;3042;43.194;27.646;2022-10-31T08:07:10;102072.59;;;27.25;99.07
6028;BME280;3042;43.194;27.646;2022-10-31T08:09:37;102079.75;;;26.95;97.91
6028;BME280;3042;43.194;27.646;2022-10-31T08:12:04;102076.22;;;26.84;97.46
6028;BME280;3042;43.194;27.646;2022-10-31T08:14:32;102077.97;;;26.94;97.57
6028;BME280;3042;43.194;27.646;2022-10-31T08:16:59;102085.06;;;26.77;97.34
6028;BME280;3042;43.194;27.646;2022-10-31T08:19:26;102090.38;;;26.86;96.63
6028;BME280;3042;43.194;27.646;2022-10-31T08:21:53;102076.16;;;27.14;96.03
6028;BME280;3042;43.194;27.646;2022-10-31T08:24:22;102085.00;;;27.12;96.29
6028;BME280;3042;43.194;27.646;2022-10-31T08:26:49;101988.75;;;26.15;96.49
6028;BME280;3042;43.194;27.646;2022-10-31T08:29:17;102101.00;;;26.55;97.39
6028;BME280;3042;43.194;27.646;2022-10-31T08:31:44;102098.34;;;26.63;97.08
6028;BME280;3042;43.194;27.646;2022-10-31T08:34:11;102093.91;;;26.66;97.84
6028;BME280;3042;43.194;27.646;2022-10-31T08:36:38;102095.69;;;26.50;98.10
6028;BME280;3042;43.194;27.646;2022-10-31T08:39:05;102093.00;;;26.73;100.00
6028;BME280;3042;43.194;27.646;2022-10-31T08:41:34;102091.25;;;26.91;100.00
6028;BME280;3042;43.194;27.646;2022-10-31T08:44:02;101994.91;;;26.40;100.00
6028;BME280;3042;43.194;27.646;2022-10-31T08:46:29;102087.66;;;27.06;100.00
6028;BME280;3042;43.194;27.646;2022-10-31T08:48:57;102079.63;;;27.38;100.00
6028;BME280;3042;43.194;27.646;2022-10-31T08:51:24;102083.19;;;27.37;100.00
6028;BME280;3042;43.194;27.646;2022-10-31T08:53:51;102084.97;;;27.23;100.00
6028;BME280;3042;43.194;27.646;2022-10-31T08:56:18;102083.22;;;27.19;100.00
6028;BME280;3042;43.194;27.646;2022-10-31T08:58:47;102068.03;;;27.61;100.00
6028;BME280;3042;43.194;27.646;2022-10-31T09:01:14;102088.50;;;27.34;100.00
6028;BME280;3042;43.194;27.646;2022-10-31T09:03:41;102076.03;;;27.51;100.00
6028;BME280;3042;43.194;27.646;2022-10-31T09:06:09;102070.63;;;27.67;100.00
6028;BME280;3042;43.194;27.646;2022-10-31T09:08:36;102077.81;;;27.49;100.00
6028;BME280;3042;43.194;27.646;2022-10-31T09:11:04;102062.63;;;27.77;100.00
6028;BME280;3042;43.194;27.646;2022-10-31T09:13:32;102071.47;;;27.84;100.00
6028;BME280;3042;43.194;27.646;2022-10-31T09:16:00;102054.66;;;27.76;100.00
6028;BME280;3042;43.194;27.646;2022-10-31T09:18:28;102062.59;;;27.85;100.00
6028;BME280;3042;43.194;27.646;2022-10-31T09:20:57;102047.25;;;28.24;100.00
6028;BME280;3042;43.194;27.646;2022-10-31T09:23:25;102050.78;;;28.26;100.00
6028;BME280;3042;43.194;27.646;2022-10-31T09:25:52;102050.91;;;28.11;99.35
6028;BME280;3042;43.194;27.646;2022-10-31T09:28:21;102047.22;;;28.26;99.16
6028;BME280;3042;43.194;27.646;2022-10-31T09:30:50;102048.97;;;28.28;98.60
6028;BME280;3042;43.194;27.646;2022-10-31T09:33:19;102036.34;;;28.59;96.66
6028;BME280;3042;43.194;27.646;2022-10-31T09:35:48;102034.50;;;28.66;95.73
6028;BME280;3042;43.194;27.646;2022-10-31T09:38:16;101996.66;;;28.32;94.20
6028;BME280;3042;43.194;27.646;2022-10-31T09:40:46;102043.53;;;28.44;96.68
6028;BME280;3042;43.194;27.646;2022-10-31T09:43:15;102034.44;;;28.71;95.20
6028;BME280;3042;43.194;27.646;2022-10-31T09:45:53;102026.28;;;28.88;93.16
6028;BME280;3042;43.194;27.646;2022-10-31T09:48:40;102012.44;;;29.34;91.91
6028;BME280;3042;43.194;27.646;2022-10-31T09:51:12;102008.75;;;29.44;91.09
6028;BME280;3042;43.194;27.646;2022-10-31T09:53:44;102023.41;;;29.09;90.78
6028;BME280;3042;43.194;27.646;2022-10-31T09:56:14;102015.00;;;29.40;92.35
6028;BME280;3042;43.194;27.646;2022-10-31T09:58:44;102006.69;;;29.61;90.53
6028;BME280;3042;43.194;27.646;2022-10-31T10:01:34;101997.38;;;29.93;88.66
6028;BME280;3042;43.194;27.646;2022-10-31T10:04:14;101983.59;;;30.19;88.47
6028;BME280;3042;43.194;27.646;2022-10-31T10:06:47;101982.78;;;30.16;86.56
6028;BME280;3042;43.194;27.646;2022-10-31T10:09:17;101991.75;;;30.08;85.14
6028;BME280;3042;43.194;27.646;2022-10-31T10:11:52;101971.06;;;30.27;85.17
6028;BME280;3042;43.194;27.646;2022-10-31T10:14:35;101974.44;;;30.36;84.14
6028;BME280;3042;43.194;27.646;2022-10-31T10:17:12;101963.63;;;30.43;82.71
6028;BME280;3042;43.194;27.646;2022-10-31T10:19:53;101971.50;;;30.49;82.10
6028;BME280;3042;43.194;27.646;2022-10-31T10:22:28;101955.00;;;30.74;81.47
6028;BME280;3042;43.194;27.646;2022-10-31T10:25:12;101787.91;;;29.80;80.23
6028;BME280;3042;43.194;27.646;2022-10-31T10:30:39;101951.59;;;30.67;79.80
6028;BME280;3042;43.194;27.646;2022-10-31T10:33:11;101948.69;;;30.78;79.78
6028;BME280;3042;43.194;27.646;2022-10-31T10:35:44;101809.59;;;29.58;78.54
6028;BME280;3042;43.194;27.646;2022-10-31T10:38:18;101956.19;;;30.59;79.79
6028;BME280;3042;43.194;27.646;2022-10-31T10:40:47;101957.38;;;30.44;79.30
6028;BME280;3042;43.194;27.646;2022-10-31T10:43:21;101874.84;;;29.87;78.84
6028;BME280;3042;43.194;27.646;2022-10-31T10:45:56;101873.75;;;29.46;80.05
6028;BME280;3042;43.194;27.646;2022-10-31T10:48:44;101959.72;;;30.12;79.39
6028;BME280;3042;43.194;27.646;2022-10-31T10:51:21;101950.16;;;30.49;79.02
6028;BME280;3042;43.194;27.646;2022-10-31T10:54:02;101935.25;;;30.84;79.09
6028;BME280;3042;43.194;27.646;2022-10-31T10:56:38;101936.28;;;30.77;77.62
6028;BME280;3042;43.194;27.646;2022-10-31T10:59:09;101936.38;;;30.73;77.40
6028;BME280;3042;43.194;27.646;2022-10-31T11:01:39;101929.66;;;30.97;77.38
6028;BME280;3042;43.194;27.646;2022-10-31T11:04:27;101930.16;;;30.72;76.63
6028;BME280;3042;43.194;27.646;2022-10-31T11:07:01;101748.84;;;29.79;77.34
6028;BME280;3042;43.194;27.646;2022-10-31T11:09:29;101933.22;;;30.52;76.40
6028;BME280;3042;43.194;27.646;2022-10-31T11:11:56;101701.84;;;28.09;77.63
6028;BME280;3042;43.194;27.646;2022-10-31T11:14:25;101929.78;;;30.45;78.03
6028;BME280;3042;43.194;27.646;2022-10-31T11:17:06;101909.91;;;31.04;77.77
6028;BME280;3042;43.194;27.646;2022-10-31T11:19:34;101910.56;;;31.15;76.49
6028;BME280;3042;43.194;27.646;2022-10-31T11:22:08;101899.69;;;31.60;75.54
6028;BME280;3042;43.194;27.646;2022-10-31T11:24:41;101890.91;;;31.57;73.63
6028;BME280;3042;43.194;27.646;2022-10-31T11:27:14;101834.06;;;31.50;71.15
6028;BME280;3042;43.194;27.646;2022-10-31T11:29:41;101894.81;;;31.42;68.08
6028;BME280;3042;43.194;27.646;2022-10-31T11:32:19;101907.19;;;30.65;66.61
6028;BME280;3042;43.194;27.646;2022-10-31T11:34:50;101913.84;;;30.87;70.41
6028;BME280;3042;43.194;27.646;2022-10-31T11:37:22;101898.81;;;31.22;71.86
6028;BME280;3042;43.194;27.646;2022-10-31T11:39:54;101912.25;;;30.77;71.97
6028;BME280;3042;43.194;27.646;2022-10-31T11:42:23;101897.19;;;31.15;71.70
6028;BME280;3042;43.194;27.646;2022-10-31T11:44:53;101892.22;;;31.37;70.22
6028;BME280;3042;43.194;27.646;2022-10-31T11:47:25;101891.25;;;31.43;64.96
6028;BME280;3042;43.194;27.646;2022-10-31T11:49:54;101871.22;;;31.59;63.95
6028;BME280;3042;43.194;27.646;2022-10-31T11:52:25;101862.88;;;31.73;62.27
6028;BME280;3042;43.194;27.646;2022-10-31T11:54:55;101858.34;;;31.75;62.04
6028;BME280;3042;43.194;27.646;2022-10-31T11:57:27;101873.28;;;31.48;61.94
6028;BME280;3042;43.194;27.646;2022-10-31T11:59:57;101871.25;;;31.58;61.03
6028;BME280;3042;43.194;27.646;2022-10-31T12:02:25;101857.91;;;31.92;61.04
6028;BME280;3042;43.194;27.646;2022-10-31T12:04:59;101849.78;;;31.96;59.48
6028;BME280;3042;43.194;27.646;2022-10-31T12:07:29;101844.31;;;32.01;60.00
6028;BME280;3042;43.194;27.646;2022-10-31T12:09:57;101839.09;;;31.96;59.00
6028;BME280;3042;43.194;27.646;2022-10-31T12:12:54;101846.53;;;32.16;58.15
6028;BME280;3042;43.194;27.646;2022-10-31T12:15:31;101839.00;;;32.31;59.32
6028;BME280;3042;43.194;27.646;2022-10-31T12:21:10;101757.31;;;31.55;56.55
6028;BME280;3042;43.194;27.646;2022-10-31T12:23:50;101835.19;;;32.08;55.32
6028;BME280;3042;43.194;27.646;2022-10-31T12:26:30;101845.44;;;31.91;55.82
6028;BME280;3042;43.194;27.646;2022-10-31T12:29:11;101840.50;;;32.41;57.25
6028;BME280;3042;43.194;27.646;2022-10-31T12:31:55;101820.47;;;32.84;56.84
6028;BME280;3042;43.194;27.646;2022-10-31T12:34:52;101820.56;;;32.81;55.13
6028;BME280;3042;43.194;27.646;2022-10-31T12:37:34;101825.81;;;32.84;55.72
6028;BME280;3042;43.194;27.646;2022-10-31T12:40:19;101824.81;;;32.88;55.20
6028;BME280;3042;43.194;27.646;2022-10-31T12:43:00;101810.47;;;33.17;56.53
6028;BME280;3042;43.194;27.646;2022-10-31T12:45:39;101820.13;;;33.23;55.77
6028;BME280;3042;43.194;27.646;2022-10-31T12:48:26;101807.03;;;33.40;55.74
6028;BME280;3042;43.194;27.646;2022-10-31T12:51:00;101808.00;;;33.38;55.59
6028;BME280;3042;43.194;27.646;2022-10-31T12:53:44;101811.53;;;33.40;54.86
6028;BME280;3042;43.194;27.646;2022-10-31T12:56:27;101811.78;;;33.32;55.17
6028;BME280;3042;43.194;27.646;2022-10-31T12:58:59;101808.56;;;33.48;54.96
6028;BME280;3042;43.194;27.646;2022-10-31T13:01:32;101817.34;;;33.26;54.57
6028;BME280;3042;43.194;27.646;2022-10-31T13:04:05;101844.13;;;32.98;55.12
6028;BME280;3042;43.194;27.646;2022-10-31T13:06:40;101851.91;;;32.48;55.65
6028;BME280;3042;43.194;27.646;2022-10-31T13:09:12;101852.44;;;32.61;56.51
6028;BME280;3042;43.194;27.646;2022-10-31T13:11:45;101848.47;;;32.74;57.17
6028;BME280;3042;43.194;27.646;2022-10-31T13:14:23;101840.69;;;32.94;55.53
6028;BME280;3042;43.194;27.646;2022-10-31T13:16:52;101848.75;;;32.65;55.22
6028;BME280;3042;43.194;27.646;2022-10-31T13:19:25;101848.25;;;32.80;56.44
6028;BME280;3042;43.194;27.646;2022-10-31T13:21:58;101740.25;;;31.92;54.35
6028;BME280;3042;43.194;27.646;2022-10-31T13:24:33;101854.50;;;32.49;54.95